Time;durP1;ratioP1;P1;durP2;ratioP2;P2;SDS_P1;SDS_P2;PMS_P1;PMS_P2;Temp;Humidity;BMP_temperature;BMP_pressure;BME280_temperature;BME280_humidity;BME280_pressure;Samples;Min_cycle;Max_cycle;Signal;HPM_P1;HPM_P2
2022/10/11 00:00:34;;;;;;;15.15;2.90;;;7.20;99.90;;;;;;5056913;28;20125;-65
2022/10/11 00:03:00;;;;;;;8.90;2.30;;;7.20;99.90;;;;;;5051822;28;20063;-62
2022/10/11 00:05:26;;;;;;;14.13;2.90;;;7.10;99.90;;;;;;5057709;28;20091;-62
2022/10/11 00:07:51;;;;;;;13.52;2.38;;;7.10;99.90;;;;;;5049484;28;20052;-63
2022/10/11 00:10:18;;;;;;;11.80;2.28;;;7.10;99.90;;;;;;5065256;28;20051;-62
2022/10/11 00:12:44;;;;;;;13.98;2.78;;;7.10;99.90;;;;;;5057264;28;20083;-62
2022/10/11 00:15:12;;;;;;;10.55;2.38;;;7.00;99.90;;;;;;5057880;28;20033;-62
2022/10/11 00:17:38;;;;;;;14.10;2.58;;;7.00;99.90;;;;;;5054178;28;20044;-63
2022/10/11 00:20:04;;;;;;;13.02;2.60;;;6.90;99.90;;;;;;5043631;28;20345;-62
2022/10/11 00:22:29;;;;;;;13.57;2.65;;;6.80;99.90;;;;;;5049272;28;20456;-62
2022/10/11 00:24:57;;;;;;;10.85;2.10;;;6.70;99.90;;;;;;5068324;28;20040;-62
2022/10/11 00:27:23;;;;;;;11.48;2.42;;;6.70;99.90;;;;;;5051034;28;20064;-63
2022/10/11 00:29:48;;;;;;;18.48;2.90;;;6.70;99.90;;;;;;5047400;28;20133;-62
2022/10/11 00:32:14;;;;;;;10.30;2.20;;;6.60;99.90;;;;;;5046014;28;20107;-63
2022/10/11 00:34:39;;;;;;;16.23;2.42;;;6.70;99.90;;;;;;5052243;28;20364;-62
2022/10/11 00:37:05;;;;;;;13.18;2.70;;;6.70;99.90;;;;;;5057673;28;20151;-62
2022/10/11 00:39:31;;;;;;;14.60;2.92;;;6.70;99.90;;;;;;5048042;28;20044;-62
2022/10/11 00:41:57;;;;;;;12.90;2.65;;;6.80;99.90;;;;;;5053199;28;20040;-63
2022/10/11 00:44:26;;;;;;;12.07;2.65;;;6.80;99.90;;;;;;5060599;28;20041;-64
2022/10/11 00:46:54;;;;;;;15.15;3.42;;;6.80;99.90;;;;;;5048894;28;20406;-62
2022/10/11 00:49:32;;;;;;;11.85;2.08;;;6.80;99.90;;;;;;5057523;28;20448;-62
2022/10/11 00:52:05;;;;;;;13.25;2.60;;;6.80;99.90;;;;;;5057220;28;20086;-62
2022/10/11 00:54:35;;;;;;;12.60;2.53;;;6.90;99.90;;;;;;5054980;28;20122;-63
2022/10/11 00:57:06;;;;;;;11.73;2.50;;;6.80;99.90;;;;;;5049092;28;20048;-63
2022/10/11 00:59:38;;;;;;;11.05;2.80;;;6.70;99.90;;;;;;5051465;28;20040;-62
2022/10/11 01:02:04;;;;;;;11.32;2.88;;;6.70;99.90;;;;;;5051007;28;20048;-64
2022/10/11 01:04:29;;;;;;;10.68;2.03;;;6.70;99.90;;;;;;5050364;28;20171;-63
2022/10/11 01:06:57;;;;;;;13.40;2.40;;;6.70;99.90;;;;;;5047372;28;20036;-63
2022/10/11 01:09:23;;;;;;;13.07;2.17;;;6.80;99.90;;;;;;5047031;28;20045;-63
2022/10/11 01:11:51;;;;;;;16.05;2.88;;;6.80;99.90;;;;;;5046137;28;20059;-62
2022/10/11 01:14:36;;;;;;;8.80;2.17;;;6.80;99.90;;;;;;5045022;28;20502;-63
2022/10/11 01:17:19;;;;;;;13.13;2.17;;;6.80;99.90;;;;;;5047860;28;20037;-63
2022/10/11 01:20:09;;;;;;;15.77;2.67;;;6.80;99.90;;;;;;5049900;28;20044;-62
2022/10/11 01:23:00;;;;;;;8.18;2.22;;;6.80;99.90;;;;;;5051565;28;20039;-62
2022/10/11 01:25:30;;;;;;;;;;;6.80;99.90;;;;;;5053765;28;20118;-62
2022/10/11 01:28:21;;;;;;;;;;;6.70;99.90;;;;;;5051069;28;19916;-62
2022/10/11 01:30:49;;;;;;;8.13;1.95;;;6.70;99.90;;;;;;5061904;28;20367;-62
2022/10/11 01:33:26;;;;;;;14.13;2.28;;;6.60;99.90;;;;;;5055191;28;20098;-63
2022/10/11 01:36:15;;;;;;;12.25;2.17;;;6.60;99.90;;;;;;5059864;28;20041;-62
2022/10/11 01:38:51;;;;;;;14.68;3.60;;;6.60;99.90;;;;;;5047787;28;20045;-62
2022/10/11 01:41:24;;;;;;;11.93;2.33;;;6.60;99.90;;;;;;5050266;28;20117;-62
2022/10/11 01:43:54;;;;;;;16.00;2.28;;;6.60;99.90;;;;;;5050334;28;20041;-62
2022/10/11 01:46:20;;;;;;;10.93;2.10;;;6.60;99.90;;;;;;5052802;28;20041;-62
2022/10/11 01:48:59;;;;;;;7.90;2.00;;;6.70;99.90;;;;;;5051632;28;20036;-63
2022/10/11 01:51:33;;;;;;;10.05;2.38;;;6.70;99.90;;;;;;5047436;28;20097;-64
2022/10/11 01:54:21;;;;;;;8.93;2.38;;;6.70;99.90;;;;;;5049733;28;20028;-63
2022/10/11 01:57:05;;;;;;;12.10;2.00;;;6.70;99.90;;;;;;5046089;28;20055;-63
2022/10/11 01:59:40;;;;;;;13.13;2.10;;;6.70;99.90;;;;;;5054665;28;20040;-62
2022/10/11 02:02:24;;;;;;;14.40;2.20;;;6.70;99.90;;;;;;5063982;28;20068;-62
2022/10/11 02:05:01;;;;;;;10.38;1.95;;;6.70;99.90;;;;;;5047700;28;20152;-62
2022/10/11 02:07:50;;;;;;;12.93;2.65;;;6.70;99.90;;;;;;5049114;28;20150;-62
2022/10/11 02:10:31;;;;;;;14.65;2.75;;;6.70;99.90;;;;;;5055640;28;20037;-62
2022/10/11 02:13:08;;;;;;;10.85;2.55;;;6.70;99.90;;;;;;5045947;28;20029;-62
2022/10/11 02:15:38;;;;;;;9.32;1.90;;;6.70;99.90;;;;;;5061573;28;20045;-62
2022/10/11 02:18:10;;;;;;;12.75;2.20;;;6.60;99.90;;;;;;5058305;28;20040;-63
2022/10/11 02:20:39;;;;;;;11.50;2.22;;;6.60;99.90;;;;;;5049120;28;20472;-62
2022/10/11 02:23:23;;;;;;;15.05;2.17;;;6.70;99.90;;;;;;5057333;28;20048;-63
2022/10/11 02:25:50;;;;;;;8.63;1.98;;;6.70;99.90;;;;;;5048538;28;20322;-62
2022/10/11 02:28:21;;;;;;;9.82;2.20;;;6.70;99.90;;;;;;5054076;28;20452;-63
2022/10/11 02:30:49;;;;;;;6.95;2.10;;;6.60;99.90;;;;;;5053245;28;20116;-62
2022/10/11 02:33:21;;;;;;;9.13;2.03;;;6.60;99.90;;;;;;5058962;28;20498;-62
2022/10/11 02:35:53;;;;;;;8.57;2.30;;;6.60;99.90;;;;;;5054788;28;20068;-62
2022/10/11 02:38:41;;;;;;;13.68;2.33;;;6.60;99.90;;;;;;5060900;28;20104;-62
2022/10/11 02:41:29;;;;;;;11.48;2.00;;;6.60;99.90;;;;;;5051745;28;20037;-62
2022/10/11 02:44:13;;;;;;;14.07;2.50;;;6.50;99.90;;;;;;5045912;28;20130;-63
2022/10/11 02:46:40;;;;;;;12.02;2.00;;;6.50;99.90;;;;;;5054598;28;20393;-62
2022/10/11 02:49:07;;;;;;;13.93;2.28;;;6.50;99.90;;;;;;5056577;28;20099;-62
2022/10/11 02:51:32;;;;;;;17.38;3.17;;;6.50;99.90;;;;;;5052247;28;20186;-62
2022/10/11 02:53:58;;;;;;;10.73;2.08;;;6.40;99.90;;;;;;5054814;28;20119;-62
2022/10/11 02:56:24;;;;;;;11.60;2.40;;;6.40;99.90;;;;;;5049956;28;20060;-62
2022/10/11 02:58:50;;;;;;;10.68;1.98;;;6.40;99.90;;;;;;5063165;28;20124;-62
2022/10/11 03:01:16;;;;;;;15.65;2.38;;;6.40;99.90;;;;;;5061218;28;20163;-62
2022/10/11 03:03:41;;;;;;;9.68;2.33;;;6.40;99.90;;;;;;5058408;28;20068;-62
2022/10/11 03:06:08;;;;;;;9.93;2.03;;;6.40;99.90;;;;;;5056078;28;20460;-62
2022/10/11 03:08:33;;;;;;;11.10;1.77;;;6.40;99.90;;;;;;5056767;28;20100;-62
2022/10/11 03:10:59;;;;;;;11.20;1.98;;;6.40;99.90;;;;;;5048081;28;20045;-62
2022/10/11 03:13:25;;;;;;;12.82;2.92;;;6.40;99.90;;;;;;5052628;28;20662;-62
2022/10/11 03:15:53;;;;;;;10.15;2.17;;;6.40;99.90;;;;;;5051200;28;20064;-62
2022/10/11 03:18:19;;;;;;;17.98;2.15;;;6.40;99.90;;;;;;5059057;28;20045;-62
2022/10/11 03:20:44;;;;;;;21.42;2.38;;;6.40;99.90;;;;;;5053242;28;20598;-63
2022/10/11 03:23:11;;;;;;;12.07;2.28;;;6.40;99.90;;;;;;5048785;28;20116;-62
2022/10/11 03:25:37;;;;;;;11.23;1.80;;;6.30;99.90;;;;;;5060629;28;20226;-62
2022/10/11 03:28:02;;;;;;;9.02;2.10;;;6.30;99.90;;;;;;5052434;28;20079;-62
2022/10/11 03:30:28;;;;;;;13.90;2.35;;;6.30;99.90;;;;;;5047034;28;20460;-62
2022/10/11 03:32:54;;;;;;;10.15;1.63;;;6.20;99.90;;;;;;5061504;28;20029;-62
2022/10/11 03:35:19;;;;;;;8.38;1.98;;;6.10;99.90;;;;;;5053708;28;20566;-62
2022/10/11 03:37:45;;;;;;;10.30;1.35;;;6.10;99.90;;;;;;5054671;28;20043;-62
2022/10/11 03:40:11;;;;;;;7.60;1.63;;;6.10;99.90;;;;;;5057631;28;20041;-62
2022/10/11 03:42:36;;;;;;;9.43;2.00;;;6.10;99.90;;;;;;5045098;28;20124;-62
2022/10/11 03:45:07;;;;;;;13.30;1.85;;;6.10;99.90;;;;;;5049562;28;20037;-62
2022/10/11 03:47:35;;;;;;;10.48;1.63;;;6.10;99.90;;;;;;5046098;28;20029;-62
2022/10/11 03:50:00;;;;;;;8.10;1.65;;;6.10;99.90;;;;;;5054260;28;20037;-63
2022/10/11 03:52:26;;;;;;;10.32;1.40;;;6.00;99.90;;;;;;5052727;28;20074;-63
2022/10/11 03:54:52;;;;;;;14.20;1.92;;;6.00;99.90;;;;;;5051694;28;20043;-62
2022/10/11 03:57:18;;;;;;;9.80;1.50;;;6.00;99.90;;;;;;5054395;28;20045;-62
2022/10/11 03:59:43;;;;;;;12.30;2.20;;;6.00;99.90;;;;;;5049167;28;20525;-62
2022/10/11 04:02:09;;;;;;;10.05;1.75;;;6.00;99.90;;;;;;5056888;28;20118;-63
2022/10/11 04:04:34;;;;;;;7.97;2.17;;;6.00;99.90;;;;;;5051651;28;20110;-62
2022/10/11 04:07:00;;;;;;;8.98;1.85;;;6.00;99.90;;;;;;5048301;28;20037;-62
2022/10/11 04:09:25;;;;;;;14.30;2.17;;;6.00;99.90;;;;;;5048740;28;20406;-62
2022/10/11 04:11:51;;;;;;;9.77;2.10;;;6.10;99.90;;;;;;5052862;28;20063;-62
2022/10/11 04:14:17;;;;;;;13.30;1.98;;;6.10;99.90;;;;;;5059202;28;20058;-63
2022/10/11 04:16:42;;;;;;;7.85;1.85;;;6.10;99.90;;;;;;5057515;28;20086;-62
2022/10/11 04:19:08;;;;;;;7.20;1.60;;;6.10;99.90;;;;;;5054012;28;20480;-63
2022/10/11 04:21:33;;;;;;;9.77;1.60;;;6.10;99.90;;;;;;5062642;28;20428;-63
2022/10/11 04:23:59;;;;;;;10.10;1.77;;;6.10;99.90;;;;;;5061414;28;20041;-63
2022/10/11 04:26:24;;;;;;;10.50;1.92;;;6.00;99.90;;;;;;5056194;28;20447;-63
2022/10/11 04:28:50;;;;;;;9.15;1.90;;;6.10;99.90;;;;;;5051199;28;20062;-63
2022/10/11 04:31:16;;;;;;;10.55;1.40;;;6.10;99.90;;;;;;5050064;28;20044;-62
2022/10/11 04:33:42;;;;;;;9.35;1.88;;;6.10;99.90;;;;;;5059513;28;20090;-63
2022/10/11 04:36:07;;;;;;;8.60;1.60;;;6.10;99.90;;;;;;5047162;28;20045;-63
2022/10/11 04:38:33;;;;;;;10.93;1.80;;;6.00;99.90;;;;;;5052335;28;20064;-63
2022/10/11 04:41:06;;;;;;;10.95;1.98;;;6.00;99.90;;;;;;5066671;28;20467;-63
2022/10/11 04:43:32;;;;;;;7.82;1.63;;;5.90;99.90;;;;;;5060040;28;20067;-63
2022/10/11 04:45:57;;;;;;;9.45;2.03;;;6.00;99.90;;;;;;5054998;28;21535;-62
2022/10/11 04:48:23;;;;;;;11.07;1.98;;;6.00;99.90;;;;;;5047783;28;20028;-63
2022/10/11 04:50:48;;;;;;;10.07;1.85;;;6.10;99.90;;;;;;5047288;28;20118;-62
2022/10/11 04:53:14;;;;;;;7.95;1.85;;;5.90;99.90;;;;;;5058949;28;20086;-62
2022/10/11 04:55:40;;;;;;;10.93;1.70;;;5.90;99.90;;;;;;5053494;28;20040;-62
2022/10/11 04:58:05;;;;;;;16.48;1.67;;;6.00;99.90;;;;;;5046095;28;20737;-63
2022/10/11 05:00:31;;;;;;;13.43;1.90;;;6.10;99.90;;;;;;5051139;28;20504;-62
2022/10/11 05:02:56;;;;;;;10.80;1.83;;;6.20;99.90;;;;;;5050688;28;20469;-62
2022/10/11 05:05:22;;;;;;;11.77;1.80;;;6.20;99.90;;;;;;5048249;28;20423;-63
2022/10/11 05:07:47;;;;;;;14.93;1.88;;;6.10;99.90;;;;;;5058126;28;20044;-62
2022/10/11 05:10:13;;;;;;;8.32;1.70;;;6.10;99.90;;;;;;5060828;28;20041;-62
2022/10/11 05:12:39;;;;;;;10.27;1.88;;;6.10;99.90;;;;;;5048885;28;20567;-62
2022/10/11 05:15:05;;;;;;;9.02;1.98;;;6.10;99.90;;;;;;5059027;28;20037;-62
2022/10/11 05:17:31;;;;;;;9.70;1.60;;;6.10;99.90;;;;;;5049510;28;20061;-62
2022/10/11 05:19:56;;;;;;;7.05;1.98;;;6.10;99.90;;;;;;5054397;28;21044;-62
2022/10/11 05:22:22;;;;;;;11.48;1.60;;;6.00;99.90;;;;;;5042999;28;20041;-63
2022/10/11 05:24:48;;;;;;;13.98;2.55;;;6.10;99.90;;;;;;5052270;28;20076;-63
2022/10/11 05:27:13;;;;;;;14.52;2.53;;;6.20;99.90;;;;;;5046060;28;20056;-62
2022/10/11 05:29:39;;;;;;;12.63;2.45;;;6.20;99.90;;;;;;5054668;28;20037;-62
2022/10/11 05:32:04;;;;;;;11.45;2.00;;;6.20;99.90;;;;;;5063430;28;20036;-62
2022/10/11 05:34:30;;;;;;;10.10;2.50;;;6.20;99.90;;;;;;5056227;28;20377;-62
2022/10/11 05:36:56;;;;;;;7.35;1.85;;;6.20;99.90;;;;;;5050921;28;20044;-63
2022/10/11 05:39:22;;;;;;;12.15;2.00;;;6.20;99.90;;;;;;5046636;28;20048;-62
2022/10/11 05:41:47;;;;;;;11.98;1.88;;;6.20;99.90;;;;;;5048513;28;20041;-62
2022/10/11 05:44:13;;;;;;;8.63;1.60;;;6.10;99.90;;;;;;5054786;28;20048;-63
2022/10/11 05:46:38;;;;;;;7.50;1.98;;;6.10;99.90;;;;;;5063141;28;20036;-63
2022/10/11 05:49:04;;;;;;;12.05;2.30;;;6.10;99.90;;;;;;5048034;28;20200;-63
2022/10/11 05:51:29;;;;;;;11.13;1.77;;;6.10;99.90;;;;;;5049756;28;20444;-63
2022/10/11 05:53:55;;;;;;;7.20;1.77;;;6.10;99.90;;;;;;5064682;28;22226;-62
2022/10/11 05:56:23;;;;;;;8.48;1.58;;;6.10;99.90;;;;;;5061351;28;20178;-63
2022/10/11 05:58:49;;;;;;;5.57;1.40;;;6.10;99.90;;;;;;5051907;28;20437;-63
2022/10/11 06:01:20;;;;;;;7.88;2.08;;;6.10;99.90;;;;;;5047523;28;20146;-63
2022/10/11 06:03:46;;;;;;;6.50;1.60;;;6.10;99.90;;;;;;5049427;28;20060;-63
2022/10/11 06:06:12;;;;;;;9.13;2.13;;;6.00;99.90;;;;;;5053556;28;20384;-63
2022/10/11 06:08:37;;;;;;;11.55;2.42;;;6.00;99.90;;;;;;5058850;28;20416;-63
2022/10/11 06:11:15;;;;;;;5.95;1.98;;;6.10;99.90;;;;;;5064466;28;20767;-63
2022/10/11 06:13:41;;;;;;;12.73;2.40;;;6.10;99.90;;;;;;5057857;28;20040;-63
2022/10/11 06:16:08;;;;;;;10.68;2.20;;;6.10;99.90;;;;;;5050881;28;20068;-63
2022/10/11 06:18:33;;;;;;;17.27;2.80;;;6.10;99.90;;;;;;5046052;28;20072;-62
2022/10/11 06:20:59;;;;;;;11.23;2.72;;;6.20;99.90;;;;;;5048526;28;20036;-63
2022/10/11 06:23:25;;;;;;;14.30;2.95;;;6.30;99.90;;;;;;5042659;28;20165;-63
2022/10/11 06:26:06;;;;;;;9.48;2.92;;;6.40;99.90;;;;;;5025745;28;21090;-63
2022/10/11 06:28:33;;;;;;;8.43;2.50;;;6.40;99.90;;;;;;5043868;28;20040;-63
2022/10/11 06:31:01;;;;;;;15.43;2.78;;;6.40;99.90;;;;;;5042578;28;20036;-62
2022/10/11 06:33:27;;;;;;;8.73;2.38;;;6.50;99.90;;;;;;5046957;28;20597;-63
2022/10/11 06:35:58;;;;;;;10.00;2.20;;;6.60;99.90;;;;;;5046200;28;20144;-63
2022/10/11 06:38:24;;;;;;;10.95;2.42;;;6.60;99.90;;;;;;5046840;28;20377;-63
2022/10/11 06:40:49;;;;;;;12.45;2.55;;;6.70;99.90;;;;;;5044716;28;20404;-63
2022/10/11 06:43:15;;;;;;;9.73;2.72;;;6.70;99.90;;;;;;5044609;28;20033;-63
2022/10/11 06:45:40;;;;;;;10.82;2.60;;;6.80;99.90;;;;;;5048473;28;20143;-63
2022/10/11 06:48:06;;;;;;;9.10;2.88;;;6.90;99.90;;;;;;5049374;28;20112;-63
2022/10/11 06:50:31;;;;;;;11.20;1.92;;;7.00;99.90;;;;;;5047928;28;20159;-63
2022/10/11 06:52:58;;;;;;;10.13;2.53;;;7.00;99.90;;;;;;5044717;28;20044;-63
2022/10/11 06:55:23;;;;;;;10.80;2.50;;;7.10;99.90;;;;;;5046622;28;20140;-63
2022/10/11 06:57:49;;;;;;;10.13;2.35;;;7.20;99.90;;;;;;5044085;28;24756;-64
2022/10/11 07:00:15;;;;;;;10.65;2.22;;;7.30;99.90;;;;;;5049821;28;20131;-63
2022/10/11 07:02:40;;;;;;;10.48;3.13;;;7.40;99.90;;;;;;5046324;28;20065;-62
2022/10/11 07:05:07;;;;;;;13.55;2.65;;;7.50;99.90;;;;;;5046174;28;20057;-63
2022/10/11 07:07:32;;;;;;;9.48;2.33;;;7.60;99.90;;;;;;5049641;28;20028;-63
2022/10/11 07:09:58;;;;;;;16.67;2.65;;;7.70;99.90;;;;;;5049597;28;20116;-63
2022/10/11 07:12:24;;;;;;;13.15;3.67;;;7.80;99.90;;;;;;5047574;28;20041;-63
2022/10/11 07:14:49;;;;;;;6.97;1.80;;;8.00;99.90;;;;;;5047239;28;20037;-63
2022/10/11 07:17:15;;;;;;;16.23;2.75;;;8.20;99.90;;;;;;5049670;28;20029;-63
2022/10/11 07:19:40;;;;;;;10.40;2.50;;;8.30;99.90;;;;;;5045341;28;20044;-63
2022/10/11 07:22:06;;;;;;;12.55;3.70;;;8.50;99.90;;;;;;5047063;28;20047;-63
2022/10/11 07:24:31;;;;;;;11.80;3.08;;;8.70;99.90;;;;;;5047517;28;20060;-63
2022/10/11 07:26:57;;;;;;;11.10;2.72;;;8.90;99.90;;;;;;5043504;28;20122;-63
2022/10/11 07:29:23;;;;;;;13.27;2.20;;;9.10;99.90;;;;;;5047783;28;20710;-63
2022/10/11 07:31:48;;;;;;;7.25;1.98;;;9.20;99.90;;;;;;5048645;28;20059;-63
2022/10/11 07:34:14;;;;;;;10.25;1.90;;;9.30;99.90;;;;;;5045449;28;20064;-63
2022/10/11 07:36:40;;;;;;;7.07;1.70;;;9.40;99.90;;;;;;5044869;28;20106;-63
2022/10/11 07:39:07;;;;;;;9.65;2.63;;;9.40;99.90;;;;;;5044967;28;20456;-63
2022/10/11 07:41:32;;;;;;;8.50;2.00;;;9.40;99.90;;;;;;5046096;28;20077;-63
2022/10/11 07:43:58;;;;;;;7.60;1.70;;;9.50;99.90;;;;;;5043379;28;20132;-63
2022/10/11 07:46:24;;;;;;;7.97;1.92;;;9.60;99.90;;;;;;5048798;28;20300;-62
2022/10/11 07:48:49;;;;;;;9.88;2.38;;;9.60;99.90;;;;;;5043079;28;20040;-63
2022/10/11 07:51:20;;;;;;;9.27;2.38;;;9.60;99.90;;;;;;5047426;28;20033;-62
2022/10/11 07:53:49;;;;;;;10.68;2.00;;;9.60;99.90;;;;;;5045845;28;20043;-62
2022/10/11 07:56:18;;;;;;;6.07;1.65;;;9.70;99.90;;;;;;5044001;28;20361;-62
2022/10/11 07:58:48;;;;;;;8.75;1.58;;;9.60;99.90;;;;;;5053853;28;20040;-62
2022/10/11 08:01:13;;;;;;;7.00;1.80;;;9.70;99.90;;;;;;5045493;28;20040;-62
2022/10/11 08:03:39;;;;;;;8.75;2.63;;;9.60;99.90;;;;;;5044161;28;20057;-62
2022/10/11 08:06:07;;;;;;;7.82;1.55;;;9.70;99.90;;;;;;5042408;28;20053;-64
2022/10/11 08:08:33;;;;;;;4.90;1.70;;;9.80;99.90;;;;;;5047723;28;20151;-62
2022/10/11 08:10:59;;;;;;;9.93;1.73;;;9.80;99.90;;;;;;5049522;28;20063;-62
2022/10/11 08:13:24;;;;;;;8.65;2.00;;;9.90;99.90;;;;;;5048104;28;20029;-62
2022/10/11 08:15:50;;;;;;;7.68;1.40;;;10.00;99.90;;;;;;5046349;28;20079;-62
2022/10/11 08:18:16;;;;;;;7.65;1.80;;;10.00;99.90;;;;;;5046496;28;20036;-62
2022/10/11 08:20:42;;;;;;;7.10;2.10;;;10.20;99.90;;;;;;5046328;28;20383;-62
2022/10/11 08:23:08;;;;;;;10.10;1.90;;;10.30;99.90;;;;;;5046056;28;20044;-63
2022/10/11 08:25:42;;;;;;;9.60;1.63;;;10.40;99.90;;;;;;5043841;28;20446;-62
2022/10/11 08:28:09;;;;;;;7.43;2.08;;;10.50;99.90;;;;;;5042961;28;20079;-62
2022/10/11 08:30:35;;;;;;;13.50;2.35;;;10.50;99.90;;;;;;5046711;28;20036;-62
2022/10/11 08:33:01;;;;;;;9.70;1.90;;;10.60;99.90;;;;;;5049489;28;20086;-62
2022/10/11 08:35:27;;;;;;;10.13;1.73;;;10.70;99.90;;;;;;5046837;28;20457;-63
2022/10/11 08:37:52;;;;;;;8.55;1.75;;;10.70;99.90;;;;;;5041227;28;20105;-62
2022/10/11 08:40:20;;;;;;;10.50;2.13;;;10.70;99.90;;;;;;5048252;28;20033;-62
2022/10/11 08:43:01;;;;;;;7.68;1.65;;;10.90;99.90;;;;;;5042391;28;20036;-62
2022/10/11 08:45:45;;;;;;;5.68;1.70;;;11.00;99.90;;;;;;5030359;28;20063;-63
2022/10/11 08:48:17;;;;;;;10.27;1.80;;;11.10;99.90;;;;;;5047581;28;20045;-62
2022/10/11 08:50:48;;;;;;;8.93;1.95;;;11.20;99.90;;;;;;5044628;28;20033;-62
2022/10/11 08:53:41;;;;;;;8.95;2.30;;;11.20;99.90;;;;;;5048088;28;20059;-63
2022/10/11 08:56:12;;;;;;;11.18;2.03;;;11.30;99.90;;;;;;5047192;28;20060;-63
2022/10/11 08:58:43;;;;;;;;;;;11.40;99.90;;;;;;5026945;28;20063;-62
2022/10/11 09:01:19;;;;;;;10.00;1.83;;;11.60;99.90;;;;;;5048740;28;19971;-63
2022/10/11 09:03:46;;;;;;;14.00;2.35;;;11.60;99.90;;;;;;5048976;28;20479;-62
2022/10/11 09:06:39;;;;;;;8.90;1.80;;;11.70;99.90;;;;;;5046784;28;20051;-63
2022/10/11 09:09:46;;;;;;;10.05;1.90;;;11.60;99.90;;;;;;5063295;28;20518;-63
2022/10/11 09:12:22;;;;;;;14.15;2.20;;;11.80;99.90;;;;;;5049941;28;20033;-63
2022/10/11 09:14:51;;;;;;;7.68;1.70;;;11.80;99.90;;;;;;5049103;28;20091;-63
2022/10/11 09:17:50;;;;;;;10.40;1.67;;;12.00;99.90;;;;;;5045359;28;20037;-63
2022/10/11 09:20:29;;;;;;;11.05;2.03;;;12.00;99.90;;;;;;5035650;28;20053;-63
2022/10/11 09:22:57;;;;;;;6.78;1.75;;;12.00;99.90;;;;;;5055518;28;20137;-64
2022/10/11 09:25:43;;;;;;;6.63;1.45;;;12.10;99.90;;;;;;5047190;28;20930;-63
2022/10/11 09:28:38;;;;;;;7.47;1.80;;;12.20;99.90;;;;;;5042022;28;20053;-64
2022/10/11 09:31:07;;;;;;;11.60;2.50;;;12.30;99.90;;;;;;5044780;28;20041;-64
2022/10/11 09:33:38;;;;;;;9.60;1.60;;;12.40;99.90;;;;;;5048110;28;20044;-63
2022/10/11 09:36:21;;;;;;;8.02;1.67;;;12.50;99.90;;;;;;5045137;28;20091;-63
2022/10/11 09:38:53;;;;;;;7.43;1.98;;;12.60;99.90;;;;;;5051087;28;20044;-63
2022/10/11 09:41:55;;;;;;;10.23;1.77;;;12.70;99.90;;;;;;5048492;28;20064;-64
2022/10/11 09:44:23;;;;;;;9.93;1.83;;;12.70;99.90;;;;;;5054332;28;20045;-63
2022/10/11 09:46:51;;;;;;;8.57;2.13;;;12.80;99.90;;;;;;5051114;28;20037;-64
2022/10/11 09:49:20;;;;;;;10.68;2.30;;;13.00;99.90;;;;;;5050826;28;20047;-64
2022/10/11 09:51:52;;;;;;;5.95;1.65;;;13.00;99.90;;;;;;5055229;28;20219;-64
2022/10/11 09:54:21;;;;;;;12.45;1.85;;;13.00;99.90;;;;;;5050369;28;20523;-63
2022/10/11 09:56:47;;;;;;;9.95;2.08;;;13.30;99.90;;;;;;5047239;28;20559;-63
2022/10/11 09:59:33;;;;;;;8.38;1.60;;;13.30;99.90;;;;;;5048896;28;20348;-63
2022/10/11 10:02:18;;;;;;;9.80;2.05;;;13.40;99.90;;;;;;5049601;28;20068;-63
2022/10/11 10:04:54;;;;;;;11.60;2.58;;;13.40;99.90;;;;;;5048669;28;20097;-63
2022/10/11 10:07:20;;;;;;;9.02;1.77;;;13.60;99.90;;;;;;5049800;28;20033;-64
2022/10/11 10:09:46;;;;;;;10.70;2.30;;;13.70;99.90;;;;;;5047293;28;20071;-63
2022/10/11 10:12:17;;;;;;;11.40;2.25;;;13.70;99.90;;;;;;5048859;28;20043;-65
2022/10/11 10:14:52;;;;;;;9.07;2.00;;;13.80;99.90;;;;;;5051434;28;20044;-64
2022/10/11 10:17:18;;;;;;;7.47;1.80;;;13.90;99.90;;;;;;5051931;28;20041;-63
2022/10/11 10:19:55;;;;;;;9.27;2.25;;;14.00;99.90;;;;;;5048801;28;20051;-63
2022/10/11 10:22:28;;;;;;;9.10;2.00;;;14.00;99.90;;;;;;5048718;28;20033;-63
2022/10/11 10:24:55;;;;;;;7.47;2.22;;;14.20;99.90;;;;;;5050161;28;20124;-63
2022/10/11 10:27:23;;;;;;;10.00;2.70;;;14.30;99.90;;;;;;5041813;28;20046;-64
2022/10/11 10:30:06;;;;;;;6.72;1.58;;;14.40;99.90;;;;;;5049670;28;20397;-64
2022/10/11 10:32:39;;;;;;;8.90;1.73;;;14.40;99.90;;;;;;5054965;28;20037;-64
2022/10/11 10:35:30;;;;;;;7.30;1.90;;;14.50;99.90;;;;;;5052676;28;20149;-64
2022/10/11 10:38:15;;;;;;;9.82;1.98;;;14.60;99.90;;;;;;5051039;28;20068;-64
2022/10/11 10:40:51;;;;;;;7.78;1.70;;;14.80;99.90;;;;;;5051159;28;20064;-64
2022/10/11 10:43:41;;;;;;;8.43;2.15;;;14.90;99.90;;;;;;5050784;28;20502;-64
2022/10/11 10:46:34;;;;;;;14.97;2.33;;;14.80;99.90;;;;;;5048140;28;20068;-64
2022/10/11 10:49:03;;;;;;;9.90;2.15;;;14.80;99.90;;;;;;5050554;28;20040;-64
2022/10/11 10:51:40;;;;;;;10.60;1.92;;;14.80;99.90;;;;;;5047861;28;20045;-64
2022/10/11 10:54:44;;;;;;;8.27;1.90;;;14.80;99.90;;;;;;5050957;28;20362;-64
2022/10/11 10:57:28;;;;;;;10.77;1.77;;;14.80;99.90;;;;;;5048819;28;20132;-64
2022/10/11 10:59:59;;;;;;;8.13;1.52;;;14.70;99.90;;;;;;5050221;28;20198;-64
2022/10/11 11:02:40;;;;;;;11.55;2.00;;;14.80;99.90;;;;;;5050002;28;20056;-64
2022/10/11 11:05:05;;;;;;;;;;;14.70;99.90;;;;;;5048998;28;20365;-64
2022/10/11 11:07:48;;;;;;;9.52;2.60;;;14.70;99.90;;;;;;5049973;28;19917;-63
2022/10/11 11:10:21;;;;;;;8.43;1.50;;;14.70;99.90;;;;;;5049120;28;20045;-64
2022/10/11 11:12:47;;;;;;;10.23;2.33;;;14.70;99.90;;;;;;5050351;28;20500;-64
2022/10/11 11:15:27;;;;;;;11.50;2.58;;;14.70;99.90;;;;;;5053557;28;20051;-64
2022/10/11 11:18:12;;;;;;;10.18;2.10;;;14.70;99.90;;;;;;5056736;28;20067;-64
2022/10/11 11:21:04;;;;;;;14.70;2.08;;;14.80;99.90;;;;;;5063365;28;20158;-64
2022/10/11 11:24:03;;;;;;;10.02;1.85;;;14.80;99.90;;;;;;5054625;28;20076;-64
2022/10/11 11:26:49;;;;;;;7.90;1.60;;;14.80;99.90;;;;;;5054538;28;20345;-64
2022/10/11 11:29:39;;;;;;;11.85;2.08;;;14.80;99.90;;;;;;5059006;28;20045;-65
2022/10/11 11:32:48;;;;;;;9.77;2.08;;;14.70;99.90;;;;;;5055158;28;20189;-64
2022/10/11 11:35:18;;;;;;;11.93;2.65;;;14.80;99.90;;;;;;5055454;28;20314;-64
2022/10/11 11:37:47;;;;;;;14.48;2.03;;;14.70;99.90;;;;;;5056414;28;20075;-65
2022/10/11 11:40:34;;;;;;;9.95;1.60;;;14.80;99.90;;;;;;5052057;28;20434;-65
2022/10/11 11:43:31;;;;;;;5.88;1.27;;;14.60;99.90;;;;;;5049968;28;20032;-65
2022/10/11 11:46:03;;;;;;;9.60;2.03;;;14.50;99.90;;;;;;5038095;28;20107;-64
2022/10/11 11:48:29;;;;;;;8.70;1.52;;;14.50;99.90;;;;;;5053150;28;20123;-64
2022/10/11 11:51:12;;;;;;;10.43;1.88;;;14.50;99.90;;;;;;5049109;28;20128;-64
2022/10/11 11:53:49;;;;;;;10.00;1.67;;;14.60;99.90;;;;;;5061131;28;20094;-66
2022/10/11 11:56:32;;;;;;;9.57;1.38;;;14.60;99.90;;;;;;5040019;28;20171;-65
2022/10/11 11:59:16;;;;;;;7.57;1.48;;;14.50;99.90;;;;;;5033367;28;20622;-65
2022/10/11 12:02:02;;;;;;;9.07;1.90;;;14.50;99.90;;;;;;5040519;28;20551;-65
2022/10/11 12:04:33;;;;;;;7.70;1.85;;;14.60;99.90;;;;;;5054017;28;20044;-64
2022/10/11 12:07:06;;;;;;;8.65;1.15;;;14.70;99.90;;;;;;5059100;28;20040;-65
2022/10/11 12:09:33;;;;;;;7.63;1.52;;;14.60;99.90;;;;;;5049674;28;20032;-65
2022/10/11 12:12:03;;;;;;;8.93;1.35;;;14.70;99.90;;;;;;5053676;28;20041;-65
2022/10/11 12:14:31;;;;;;;9.50;1.88;;;14.70;99.90;;;;;;5066676;28;20115;-65
2022/10/11 12:17:22;;;;;;;10.20;1.52;;;14.80;99.90;;;;;;5064693;28;20433;-65
2022/10/11 12:20:14;;;;;;;8.45;1.65;;;14.80;99.90;;;;;;5050106;28;20051;-66
2022/10/11 12:23:00;;;;;;;9.52;1.50;;;14.90;99.90;;;;;;5051179;28;20163;-65
2022/10/11 12:25:27;;;;;;;7.25;1.52;;;15.00;99.90;;;;;;5066844;28;20444;-65
2022/10/11 12:28:01;;;;;;;10.30;2.08;;;15.00;99.90;;;;;;5054128;28;20409;-65
2022/10/11 12:30:45;;;;;;;5.65;1.80;;;15.00;99.90;;;;;;5052159;28;20090;-65
2022/10/11 12:33:29;;;;;;;11.98;1.55;;;15.10;99.90;;;;;;5060078;28;20041;-65
2022/10/11 12:35:55;;;;;;;9.13;1.65;;;15.20;99.90;;;;;;5054705;28;20068;-65
2022/10/11 12:38:25;;;;;;;7.88;1.98;;;15.30;99.90;;;;;;5055866;28;20391;-64
2022/10/11 12:41:17;;;;;;;8.98;1.92;;;15.40;99.40;;;;;;5062771;28;20400;-65
2022/10/11 12:43:48;;;;;;;11.35;1.92;;;15.60;99.90;;;;;;5047874;28;20227;-65
2022/10/11 12:46:30;;;;;;;9.10;1.40;;;15.60;99.90;;;;;;5055947;28;20044;-65
2022/10/11 12:49:26;;;;;;;9.75;1.70;;;15.60;99.90;;;;;;5049169;28;20116;-65
2022/10/11 12:52:20;;;;;;;11.13;2.03;;;15.80;96.90;;;;;;5056972;28;20033;-65
2022/10/11 12:55:05;;;;;;;8.00;1.55;;;16.30;98.90;;;;;;5050265;28;20509;-65
2022/10/11 12:57:48;;;;;;;8.48;2.15;;;16.30;99.80;;;;;;5048794;28;20150;-65
2022/10/11 13:00:25;;;;;;;8.00;1.80;;;16.00;99.00;;;;;;5060359;28;20048;-65
2022/10/11 13:02:51;;;;;;;9.70;1.70;;;15.80;98.60;;;;;;5033625;28;20080;-65
2022/10/11 13:05:26;;;;;;;7.32;1.45;;;15.60;99.90;;;;;;5057601;28;20068;-65
2022/10/11 13:07:56;;;;;;;7.93;1.58;;;15.50;98.50;;;;;;5059263;28;20040;-65
2022/10/11 13:10:41;;;;;;;6.57;1.75;;;15.50;99.40;;;;;;5065781;28;20041;-65